메인 페이지
METAR-TAF:

METAR-TAF

공항 :

테헤란, 이란

테헤란 메흐라바드 국제공항

위도: 35-41N, 경도: 051-21E, 고도: 1204m

현재 날씨관측

예보는 34분 전, 09:00시(UTC)에 발표되었습니다.
남남서10kt
온도 9°C
습도 31%
기압 1017 hPa
시정: 7000m
고도 3500ft 상공 구름 조금

METAR: OIII 180900Z 20010KT 7000 FEW035 09/M07 Q1016 A3002 NOSIG

시각: 13:04 (09:34 UTC)

예보

예보는 4 시간 24분 전, 05:10시(UTC)에 발표되었습니다.
예보 대상 시간: 18일 06시부터 19일 12시까지 (UTC)
서남서8kt
시정: 7000m
고도 3500ft 상공 구름 조금
일시적
19일 00시부터 19일 03시까지 (UTC)
시정: 4000m
연무
전환 중
19일 08시부터 19일 09시까지 (UTC)
동남동10kt

TAF: OIII 180510Z 1806/1912 25004MPS 7000 FEW035 TEMPO 1900/1903 4000 HZ BECMG 1908/1909 12005MPS

4,000개 이상의 공항 관측 자료 및 예보 (METAR 및 TAF 보고).

지도상에서 검색 가능한 기상관측소가 노란 점과 빨간 점으로 표시되어 있습니다.

기상관측소 명을 보려면 표시 위로 마우스를 이동하세요.

날씨 관측과 예보를 보려면 클릭하세요.

지도 변경 : 확대하려면 엑스 표시가 있는 녹색 버튼, 축소하려면 빼기 표시가 있는 녹색 버튼, 다음 페이지의 지도를 보려면 녹색 화살표를 클릭하세요.


METAR-TAF: